createdAt,value
2022-11-03T00:02:19.422Z,4.10
2022-11-03T00:04:48.819Z,4.47
2022-11-03T00:07:23.709Z,3.40
2022-11-03T00:09:52.740Z,4.20
2022-11-03T00:12:22.308Z,4.97
2022-11-03T00:14:52.132Z,3.90
2022-11-03T00:17:26.560Z,3.75
2022-11-03T00:19:55.669Z,3.70
2022-11-03T00:25:21.872Z,3.47
2022-11-03T00:27:57.397Z,3.80
2022-11-03T00:30:31.267Z,4.25
2022-11-03T00:33:02.278Z,3.05
2022-11-03T00:35:31.534Z,4.03
2022-11-03T00:38:00.354Z,3.80
2022-11-03T00:40:29.157Z,3.75
2022-11-03T00:42:58.348Z,3.95
2022-11-03T00:45:26.978Z,4.65
2022-11-03T00:48:15.866Z,3.63
2022-11-03T00:50:50.052Z,3.55
2022-11-03T00:53:21.418Z,3.40
2022-11-03T00:55:51.657Z,4.15
2022-11-03T00:58:20.714Z,3.60
2022-11-03T01:00:50.177Z,3.53
2022-11-03T01:03:19.022Z,3.63
2022-11-03T01:06:07.059Z,3.78
2022-11-03T01:08:37.315Z,4.13
2022-11-03T01:11:30.750Z,5.00
2022-11-03T01:14:00.555Z,3.75
2022-11-03T01:16:30.581Z,3.53
2022-11-03T01:19:00.353Z,4.20
2022-11-03T01:21:31.623Z,4.00
2022-11-03T01:24:03.806Z,3.30
2022-11-03T01:26:33.425Z,3.55
2022-11-03T01:29:02.948Z,3.63
2022-11-03T01:31:35.260Z,3.53
2022-11-03T01:34:04.266Z,3.30
2022-11-03T01:36:35.464Z,3.22
2022-11-03T01:39:04.521Z,3.72
2022-11-03T01:41:33.516Z,3.78
2022-11-03T01:44:36.283Z,3.70
2022-11-03T01:47:24.707Z,3.63
2022-11-03T01:50:01.132Z,3.63
2022-11-03T01:52:36.984Z,3.97
2022-11-03T01:55:10.568Z,4.15
2022-11-03T01:57:43.684Z,3.50
2022-11-03T02:00:14.253Z,3.92
2022-11-03T02:02:43.652Z,4.15
2022-11-03T02:05:15.031Z,3.47
2022-11-03T02:07:53.103Z,3.55
2022-11-03T02:10:22.667Z,4.10
2022-11-03T02:12:52.961Z,3.78
2022-11-03T02:15:26.452Z,4.50
2022-11-03T02:17:57.355Z,3.60
2022-11-03T02:20:29.818Z,3.63
2022-11-03T02:23:26.423Z,3.53
2022-11-03T02:25:59.061Z,3.80
2022-11-03T02:28:33.043Z,3.67
2022-11-03T02:31:11.594Z,3.53
2022-11-03T02:33:50.901Z,3.22
2022-11-03T02:36:33.224Z,3.60
2022-11-03T02:39:14.705Z,3.88
2022-11-03T02:41:48.158Z,3.17
2022-11-03T02:44:20.108Z,4.13
2022-11-03T02:46:53.245Z,4.05
2022-11-03T02:49:35.627Z,2.97
2022-11-03T02:52:14.266Z,3.88
2022-11-03T02:54:51.988Z,3.65
2022-11-03T02:57:29.271Z,3.67
2022-11-03T03:00:05.185Z,4.28
2022-11-03T03:02:40.529Z,3.80
2022-11-03T03:05:13.432Z,4.18
2022-11-03T03:07:48.533Z,3.55
2022-11-03T03:10:20.065Z,4.30
2022-11-03T03:12:53.623Z,3.65
2022-11-03T03:15:30.001Z,3.50
2022-11-03T03:18:09.847Z,3.78
2022-11-03T03:20:45.274Z,3.33
2022-11-03T03:23:20.830Z,4.15
2022-11-03T03:25:56.434Z,4.18
2022-11-03T03:28:32.997Z,3.92
2022-11-03T03:31:06.904Z,4.38
2022-11-03T03:33:38.129Z,3.38
2022-11-03T03:36:15.529Z,3.90
2022-11-03T03:38:50.709Z,3.67
2022-11-03T03:41:23.248Z,4.38
2022-11-03T03:43:55.939Z,3.53
2022-11-03T03:46:45.115Z,3.63
2022-11-03T03:49:14.332Z,4.05
2022-11-03T03:51:44.235Z,3.60
2022-11-03T03:54:14.071Z,3.60
2022-11-03T03:56:48.052Z,3.47
2022-11-03T03:59:19.005Z,4.10
2022-11-03T04:01:48.721Z,3.80
2022-11-03T04:04:19.096Z,3.97
2022-11-03T04:06:47.876Z,3.63
2022-11-03T04:09:17.174Z,4.10
2022-11-03T04:12:03.422Z,4.47
2022-11-03T04:14:54.098Z,4.05
2022-11-03T04:17:40.439Z,3.58
2022-11-03T04:20:32.273Z,4.38
2022-11-03T04:23:03.855Z,3.33
2022-11-03T04:25:32.567Z,4.32
2022-11-03T04:28:03.661Z,3.78
2022-11-03T04:30:36.947Z,3.60
2022-11-03T04:33:17.610Z,3.50
2022-11-03T04:35:50.355Z,3.95
2022-11-03T04:38:27.843Z,3.92
2022-11-03T04:40:59.381Z,3.55
2022-11-03T04:43:36.092Z,4.00
2022-11-03T04:46:14.091Z,3.72
2022-11-03T04:48:52.700Z,4.00
2022-11-03T04:51:39.440Z,4.10
2022-11-03T04:54:25.733Z,3.28
2022-11-03T04:56:57.332Z,3.78
2022-11-03T04:59:36.225Z,4.15
2022-11-03T05:02:18.432Z,3.53
2022-11-03T05:04:52.383Z,3.42
2022-11-03T05:07:41.329Z,3.85
2022-11-03T05:10:26.054Z,3.47
2022-11-03T05:12:58.403Z,3.60
2022-11-03T05:15:41.877Z,3.80
2022-11-03T05:18:21.475Z,3.53
2022-11-03T05:20:57.648Z,3.38
2022-11-03T05:23:31.769Z,3.05
2022-11-03T05:26:02.004Z,3.33
2022-11-03T05:28:36.809Z,3.58
2022-11-03T05:31:25.795Z,4.20
2022-11-03T05:34:02.156Z,3.97
2022-11-03T05:36:33.601Z,4.22
2022-11-03T05:39:28.037Z,3.95
2022-11-03T05:41:58.071Z,3.85
2022-11-03T05:44:33.667Z,3.67
2022-11-03T05:47:07.381Z,3.65
2022-11-03T05:49:38.772Z,3.50
2022-11-03T05:52:15.432Z,3.85
2022-11-03T05:54:45.307Z,4.03
2022-11-03T05:57:16.724Z,3.58
2022-11-03T05:59:47.095Z,3.25
2022-11-03T06:02:37.444Z,4.32
2022-11-03T06:05:17.164Z,3.90
2022-11-03T06:08:30.119Z,3.67
2022-11-03T06:23:52.700Z,4.05
2022-11-03T06:33:56.413Z,3.80
2022-11-03T06:36:28.614Z,3.92
2022-11-03T06:39:23.391Z,3.65
2022-11-03T06:48:39.200Z,4.00
2022-11-03T07:07:17.801Z,4.93
2022-11-03T07:14:21.940Z,4.28
2022-11-03T07:18:25.438Z,3.92
2022-11-03T07:24:50.249Z,4.22
2022-11-03T07:27:33.271Z,4.40
2022-11-03T07:30:22.552Z,4.05
2022-11-03T07:33:02.900Z,4.07
2022-11-03T07:36:00.484Z,4.35
2022-11-03T07:38:38.746Z,4.00
2022-11-03T07:41:29.620Z,4.18
2022-11-03T07:44:14.307Z,4.22
2022-11-03T07:47:06.452Z,4.53
2022-11-03T07:49:46.780Z,4.35
2022-11-03T07:55:20.023Z,4.32
2022-11-03T07:57:56.299Z,4.38
2022-11-03T08:00:33.104Z,4.18
2022-11-03T08:04:03.746Z,4.40
2022-11-03T08:06:57.458Z,3.92
2022-11-03T08:09:45.630Z,4.57
2022-11-03T08:12:24.875Z,3.95
2022-11-03T08:15:12.964Z,4.03
2022-11-03T08:18:15.360Z,4.13
2022-11-03T08:21:09.756Z,4.50
2022-11-03T08:30:06.034Z,4.13
2022-11-03T08:33:00.532Z,3.42
2022-11-03T08:35:38.857Z,4.28
2022-11-03T08:38:13.065Z,3.85
2022-11-03T08:43:59.789Z,3.53
2022-11-03T08:46:39.077Z,3.40
2022-11-03T08:49:15.824Z,3.85
2022-11-03T08:51:46.341Z,4.57
2022-11-03T08:54:27.426Z,4.25
2022-11-03T08:56:57.731Z,4.10
2022-11-03T08:59:28.113Z,4.32
2022-11-03T09:02:06.970Z,4.32
2022-11-03T09:04:54.151Z,3.70
2022-11-03T09:12:56.221Z,4.10
2022-11-03T09:15:28.426Z,3.35
2022-11-03T09:18:03.679Z,3.80
2022-11-03T09:20:39.104Z,3.72
2022-11-03T09:23:13.309Z,3.10
2022-11-03T09:25:57.634Z,3.33
2022-11-03T09:28:29.656Z,3.83
2022-11-03T09:31:18.163Z,4.43
2022-11-03T09:34:10.493Z,3.85
2022-11-03T09:36:41.181Z,3.45
2022-11-03T09:39:12.446Z,3.90
2022-11-03T09:41:59.544Z,3.67
2022-11-03T09:44:35.292Z,4.00
2022-11-03T09:47:24.292Z,3.53
2022-11-03T09:49:59.379Z,4.13
2022-11-03T09:52:30.144Z,3.80
2022-11-03T09:55:04.401Z,4.07
2022-11-03T09:57:36.558Z,3.55
2022-11-03T10:03:33.058Z,3.70
2022-11-03T10:06:03.761Z,4.25
2022-11-03T10:08:40.764Z,3.60
2022-11-03T10:11:15.113Z,3.65
2022-11-03T10:14:02.261Z,4.07
2022-11-03T10:16:35.204Z,3.70
2022-11-03T10:19:04.581Z,3.10
2022-11-03T10:21:58.594Z,3.17
2022-11-03T10:24:28.775Z,3.38
2022-11-03T10:26:58.343Z,3.42
2022-11-03T10:29:32.474Z,3.45
2022-11-03T10:32:07.173Z,3.67
2022-11-03T10:34:43.772Z,3.28
2022-11-03T10:37:20.950Z,3.40
2022-11-03T10:39:54.104Z,3.25
2022-11-03T10:47:48.274Z,2.90
2022-11-03T10:50:27.090Z,3.55
2022-11-03T10:52:58.646Z,3.03
2022-11-03T10:55:32.408Z,3.20
2022-11-03T10:58:12.057Z,3.22
2022-11-03T11:00:50.350Z,2.58
2022-11-03T11:03:21.396Z,3.20
2022-11-03T11:09:07.937Z,3.33
2022-11-03T11:12:01.704Z,3.20
2022-11-03T11:14:41.521Z,3.10
2022-11-03T11:17:49.566Z,2.67
2022-11-03T11:20:59.650Z,3.03
2022-11-03T11:23:57.029Z,3.30
2022-11-03T11:27:37.945Z,3.35
2022-11-03T11:31:20.067Z,3.35
2022-11-03T11:37:55.313Z,2.80
2022-11-03T11:41:04.413Z,2.80
2022-11-03T11:43:49.041Z,3.30
2022-11-03T11:46:43.076Z,2.90
2022-11-03T11:49:41.147Z,2.13
2022-11-03T11:52:19.295Z,2.97
2022-11-03T11:54:51.111Z,2.33
2022-11-03T11:57:25.282Z,2.78
2022-11-03T11:59:56.017Z,2.85
2022-11-03T12:05:33.968Z,2.78
2022-11-03T12:08:24.039Z,2.45
2022-11-03T12:11:03.506Z,2.50
2022-11-03T12:13:53.860Z,2.30
2022-11-03T12:20:03.500Z,2.33
2022-11-03T12:22:51.139Z,2.40
2022-11-03T12:25:49.199Z,2.30
2022-11-03T12:28:42.237Z,2.88
2022-11-03T12:31:17.180Z,2.60
2022-11-03T12:34:16.513Z,2.83
2022-11-03T12:37:06.089Z,2.70
2022-11-03T12:39:38.311Z,2.50
2022-11-03T12:42:10.268Z,2.33
2022-11-03T12:45:05.282Z,2.65
2022-11-03T12:47:35.546Z,2.60
2022-11-03T12:50:07.415Z,2.80
2022-11-03T12:52:48.055Z,2.58
2022-11-03T12:55:23.369Z,2.47
2022-11-03T12:57:51.922Z,2.40
2022-11-03T13:00:32.437Z,2.28
2022-11-03T13:03:16.909Z,2.85
2022-11-03T13:05:45.252Z,2.15
2022-11-03T13:08:27.119Z,2.03
2022-11-03T13:11:17.334Z,2.72
2022-11-03T13:13:50.873Z,2.40
2022-11-03T13:16:27.537Z,2.50
2022-11-03T13:19:00.094Z,2.20
2022-11-03T13:21:29.085Z,2.80
2022-11-03T13:35:25.505Z,2.28
2022-11-03T13:38:29.195Z,2.00
2022-11-03T13:44:52.229Z,2.60
2022-11-03T13:47:34.280Z,2.20
2022-11-03T13:50:14.913Z,2.40
2022-11-03T13:52:44.860Z,2.75
2022-11-03T14:01:12.455Z,2.40
2022-11-03T14:06:38.032Z,2.65
2022-11-03T14:09:07.009Z,2.20
2022-11-03T14:11:53.253Z,2.80
2022-11-03T14:14:26.189Z,2.15
2022-11-03T14:16:58.349Z,2.38
2022-11-03T14:19:48.673Z,2.40
2022-11-03T14:22:24.871Z,2.65
2022-11-03T14:24:54.490Z,2.63
2022-11-03T14:27:26.145Z,2.42
2022-11-03T14:29:55.210Z,2.42
2022-11-03T14:32:28.751Z,2.92
2022-11-03T14:34:58.240Z,2.33
2022-11-03T14:37:29.022Z,2.60
2022-11-03T14:39:58.904Z,2.72
2022-11-03T14:42:26.655Z,2.25
2022-11-03T14:45:11.615Z,2.10
2022-11-03T14:48:00.878Z,2.50
2022-11-03T14:50:29.096Z,2.40
2022-11-03T14:52:59.963Z,3.00
2022-11-03T14:55:34.179Z,2.65
2022-11-03T14:58:02.862Z,2.53
2022-11-03T15:03:16.006Z,2.50
2022-11-03T15:05:47.486Z,2.42
2022-11-03T15:08:19.156Z,2.85
2022-11-03T15:10:48.347Z,2.60
2022-11-03T15:13:18.003Z,2.55
2022-11-03T15:16:09.342Z,2.42
2022-11-03T15:19:14.680Z,3.00
2022-11-03T15:26:48.664Z,3.00
2022-11-03T15:45:17.965Z,3.20
2022-11-03T15:48:09.640Z,3.40
2022-11-03T15:50:42.067Z,3.50
2022-11-03T15:53:12.163Z,3.20
2022-11-03T15:56:14.947Z,3.03
2022-11-03T15:59:08.923Z,3.00
2022-11-03T16:01:45.951Z,3.05
2022-11-03T16:04:34.396Z,3.22
2022-11-03T16:10:03.907Z,2.85
2022-11-03T16:12:45.026Z,3.38
2022-11-03T17:14:28.775Z,4.95
2022-11-03T17:25:36.689Z,5.00
2022-11-03T17:28:21.348Z,5.18
2022-11-03T17:30:58.688Z,5.07
2022-11-03T17:33:29.043Z,5.22
2022-11-03T17:35:57.820Z,5.88
2022-11-03T17:38:28.335Z,5.60
2022-11-03T17:40:58.603Z,5.72
2022-11-03T17:43:30.252Z,6.00
2022-11-03T17:45:58.987Z,6.00
2022-11-03T17:48:27.591Z,6.07
2022-11-03T17:50:57.904Z,5.95
2022-11-03T17:53:30.005Z,7.22
2022-11-03T17:56:28.542Z,6.28
2022-11-03T17:59:00.151Z,6.75
2022-11-03T18:01:29.365Z,6.78
2022-11-03T18:03:59.357Z,6.82
2022-11-03T18:06:28.640Z,7.25
2022-11-03T18:08:57.393Z,7.65
2022-11-03T18:11:48.806Z,7.57
2022-11-03T18:14:20.438Z,7.85
2022-11-03T18:16:50.817Z,7.40
2022-11-03T18:19:23.483Z,8.07
2022-11-03T18:21:53.124Z,7.65
2022-11-03T18:24:23.118Z,8.13
2022-11-03T18:26:53.187Z,7.78
2022-11-03T18:29:22.254Z,8.30
2022-11-03T18:31:51.071Z,8.77
2022-11-03T18:34:25.301Z,8.63
2022-11-03T18:36:54.596Z,9.77
2022-11-03T18:39:26.732Z,9.23
2022-11-03T18:41:56.711Z,9.10
2022-11-03T18:44:36.400Z,9.52
2022-11-03T18:47:44.160Z,10.15
2022-11-03T18:54:42.449Z,9.93
2022-11-03T19:02:30.043Z,12.45
2022-11-03T19:05:02.991Z,12.68
2022-11-03T19:07:36.976Z,13.00
2022-11-03T19:10:24.420Z,12.57
2022-11-03T19:13:07.013Z,13.05
2022-11-03T19:15:36.233Z,12.45
2022-11-03T19:18:07.210Z,13.38
2022-11-03T19:20:36.296Z,13.15
2022-11-03T19:23:05.785Z,12.30
2022-11-03T19:25:34.228Z,11.93
2022-11-03T19:28:02.498Z,11.13
2022-11-03T19:30:31.760Z,11.02
2022-11-03T19:33:00.758Z,11.13
2022-11-03T19:35:34.441Z,10.98
2022-11-03T19:38:06.977Z,10.55
2022-11-03T19:40:35.720Z,10.98
2022-11-03T19:43:04.723Z,11.73
2022-11-03T19:45:32.939Z,10.38
2022-11-03T19:48:23.132Z,10.80
2022-11-03T19:50:53.447Z,11.25
2022-11-03T19:53:26.664Z,9.95
2022-11-03T19:55:56.072Z,10.25
2022-11-03T19:58:26.692Z,10.30
2022-11-03T20:00:55.879Z,10.90
2022-11-03T20:03:25.008Z,10.55
2022-11-03T20:05:57.699Z,10.07
2022-11-03T20:08:30.154Z,10.18
2022-11-03T20:10:59.137Z,9.38
2022-11-03T20:13:39.756Z,6.57
2022-11-03T20:16:17.574Z,6.95
2022-11-03T20:18:48.290Z,5.90
2022-11-03T20:24:09.928Z,6.03
2022-11-03T20:26:39.446Z,5.93
2022-11-03T20:29:15.515Z,5.63
2022-11-03T20:45:29.580Z,5.30
2022-11-03T20:47:59.643Z,3.85
2022-11-03T20:50:36.886Z,3.65
2022-11-03T20:53:18.109Z,3.38
2022-11-03T20:55:50.672Z,2.97
2022-11-03T20:58:22.856Z,1.95
2022-11-03T21:00:53.292Z,1.70
2022-11-03T21:06:17.684Z,2.08
2022-11-03T21:08:46.656Z,1.98
2022-11-03T21:11:24.358Z,1.73
2022-11-03T21:13:53.447Z,1.90
2022-11-03T21:16:44.036Z,1.88
2022-11-03T21:22:53.728Z,1.70
2022-11-03T21:25:24.702Z,1.60
2022-11-03T21:27:54.226Z,1.50
2022-11-03T21:30:23.763Z,1.50
2022-11-03T21:32:53.398Z,1.42
2022-11-03T21:35:23.202Z,1.73
2022-11-03T21:37:51.498Z,1.50
2022-11-03T21:40:19.724Z,2.00
2022-11-03T21:43:05.239Z,1.73
2022-11-03T21:45:33.487Z,1.45
2022-11-03T21:48:21.324Z,1.25
2022-11-03T21:50:50.119Z,1.35
2022-11-03T21:53:18.346Z,1.50
2022-11-03T21:55:49.333Z,1.50
2022-11-03T21:58:17.677Z,1.77
2022-11-03T22:00:47.174Z,1.50
2022-11-03T22:03:16.986Z,1.90
2022-11-03T22:05:45.224Z,1.52
2022-11-03T22:08:13.511Z,1.45
2022-11-03T22:10:42.175Z,2.10
2022-11-03T22:13:11.322Z,1.80
2022-11-03T22:15:57.392Z,1.60
2022-11-03T22:18:26.891Z,1.63
2022-11-03T22:21:12.415Z,1.35
2022-11-03T22:23:58.219Z,1.52
2022-11-03T22:26:44.105Z,1.80
2022-11-03T22:29:29.704Z,1.67
2022-11-03T22:31:57.857Z,1.40
2022-11-03T22:34:45.101Z,1.58
2022-11-03T22:37:13.223Z,1.58
2022-11-03T22:39:58.920Z,1.50
2022-11-03T22:45:35.469Z,1.50
2022-11-03T22:48:15.453Z,1.55
2022-11-03T22:50:48.528Z,1.70
2022-11-03T22:53:34.319Z,1.60
2022-11-03T22:56:02.519Z,1.48
2022-11-03T22:58:30.945Z,1.85
2022-11-03T23:00:59.271Z,1.63
2022-11-03T23:03:31.755Z,1.60
2022-11-03T23:06:03.784Z,1.33
2022-11-03T23:08:33.497Z,1.60
2022-11-03T23:11:07.330Z,1.60
2022-11-03T23:13:36.178Z,1.30
2022-11-03T23:16:14.092Z,1.45
2022-11-03T23:18:59.874Z,1.75
2022-11-03T23:21:30.089Z,1.30
2022-11-03T23:24:16.084Z,1.60
2022-11-03T23:26:44.871Z,1.58
2022-11-03T23:29:14.822Z,1.83
2022-11-03T23:31:44.734Z,1.85
2022-11-03T23:34:14.519Z,1.55
2022-11-03T23:36:44.412Z,1.90
2022-11-03T23:39:15.994Z,2.38
2022-11-03T23:41:45.703Z,2.35
2022-11-03T23:44:16.397Z,1.98
2022-11-03T23:47:03.106Z,2.72
2022-11-03T23:49:31.718Z,1.92
2022-11-03T23:52:01.397Z,1.75
2022-11-03T23:54:30.033Z,1.40
2022-11-03T23:57:16.156Z,1.40
